Time;durP1;ratioP1;P1;durP2;ratioP2;P2;SDS_P1;SDS_P2;PMS_P1;PMS_P2;Temp;Humidity;BMP_temperature;BMP_pressure;BME280_temperature;BME280_humidity;BME280_pressure;Samples;Min_cycle;Max_cycle;Signal;HPM_P1;HPM_P2
2021/08/31 00:00:14;;;;;;;14.07;11.83;;;16.20;99.90;;;;;;5028839;28;20225;-67
2021/08/31 00:02:41;;;;;;;15.70;12.67;;;16.20;99.90;;;;;;5028694;28;20213;-67
2021/08/31 00:05:09;;;;;;;17.60;12.47;;;16.20;99.90;;;;;;5015674;28;20214;-68
2021/08/31 00:07:36;;;;;;;17.60;14.00;;;16.20;99.90;;;;;;5025025;28;20224;-67
2021/08/31 00:10:03;;;;;;;16.57;13.43;;;16.20;99.90;;;;;;5023394;28;20221;-68
2021/08/31 00:12:31;;;;;;;19.20;13.20;;;16.20;99.90;;;;;;5024661;28;20204;-67
2021/08/31 00:14:58;;;;;;;13.53;11.43;;;16.20;99.90;;;;;;5028506;28;20207;-67
2021/08/31 00:17:25;;;;;;;14.67;12.13;;;16.20;99.90;;;;;;5029806;28;20194;-68
2021/08/31 00:19:52;;;;;;;15.07;11.63;;;16.20;99.90;;;;;;5013751;28;20203;-68
2021/08/31 00:22:19;;;;;;;15.47;11.97;;;16.20;99.90;;;;;;5024005;28;20214;-68
2021/08/31 00:24:45;;;;;;;14.87;12.27;;;16.10;99.90;;;;;;5022673;28;20818;-67
2021/08/31 00:27:12;;;;;;;17.60;12.80;;;16.10;99.90;;;;;;5022793;28;20222;-68
2021/08/31 00:29:40;;;;;;;12.57;10.37;;;16.10;99.90;;;;;;5014938;28;20720;-68
2021/08/31 00:32:08;;;;;;;15.33;11.50;;;16.00;99.90;;;;;;5023689;28;20636;-68
2021/08/31 00:34:35;;;;;;;15.43;11.13;;;16.00;99.90;;;;;;5027952;28;20203;-68
2021/08/31 00:37:02;;;;;;;11.07;8.97;;;16.00;99.90;;;;;;5030159;28;20581;-69
2021/08/31 00:39:29;;;;;;;12.10;10.03;;;15.90;99.90;;;;;;5020920;28;20207;-67
2021/08/31 00:41:55;;;;;;;13.30;10.73;;;15.90;99.90;;;;;;5013663;28;20656;-68
2021/08/31 00:44:24;;;;;;;12.80;9.93;;;15.90;99.90;;;;;;5025506;28;20205;-68
2021/08/31 00:46:53;;;;;;;11.20;9.20;;;15.90;99.90;;;;;;5029619;28;20233;-67
2021/08/31 00:49:19;;;;;;;12.13;10.30;;;15.80;99.90;;;;;;5025304;28;20257;-67
2021/08/31 00:51:47;;;;;;;12.23;9.80;;;15.90;99.90;;;;;;5032767;28;20211;-68
2021/08/31 00:54:15;;;;;;;13.73;9.63;;;15.80;99.90;;;;;;5023977;28;20214;-68
2021/08/31 00:56:43;;;;;;;14.47;10.57;;;15.80;99.90;;;;;;5027981;28;20659;-68
2021/08/31 00:59:10;;;;;;;13.70;10.20;;;15.80;99.90;;;;;;5017388;28;20660;-68
2021/08/31 01:01:37;;;;;;;14.70;10.03;;;15.80;99.90;;;;;;5027087;28;20209;-68
2021/08/31 01:04:05;;;;;;;12.87;9.80;;;15.80;99.90;;;;;;5019875;28;20233;-68
2021/08/31 01:06:32;;;;;;;13.00;10.30;;;15.90;99.90;;;;;;5025874;28;20234;-68
2021/08/31 01:08:59;;;;;;;11.80;9.70;;;15.90;99.90;;;;;;5017008;28;20214;-68
2021/08/31 01:11:26;;;;;;;14.40;10.10;;;15.90;99.90;;;;;;5031183;28;20211;-68
2021/08/31 01:13:54;;;;;;;12.63;10.23;;;15.90;99.90;;;;;;5026897;28;20214;-67
2021/08/31 01:16:20;;;;;;;11.73;9.83;;;15.80;99.90;;;;;;5017426;28;20211;-68
2021/08/31 01:18:47;;;;;;;10.70;9.40;;;15.90;99.90;;;;;;5030956;28;20294;-66
2021/08/31 01:21:15;;;;;;;10.93;9.73;;;15.80;99.90;;;;;;5015264;28;20199;-67
2021/08/31 01:23:46;;;;;;;12.53;9.43;;;15.80;99.90;;;;;;5027627;28;20261;-68
2021/08/31 01:26:15;;;;;;;11.13;9.53;;;15.80;99.90;;;;;;5025757;28;20552;-68
2021/08/31 01:28:42;;;;;;;11.80;8.67;;;15.90;99.90;;;;;;5017249;28;20538;-67
2021/08/31 01:31:09;;;;;;;11.07;9.33;;;15.80;99.90;;;;;;5025092;28;20203;-67
2021/08/31 01:33:36;;;;;;;10.50;8.77;;;15.70;99.90;;;;;;5029316;28;20211;-68
2021/08/31 01:36:19;;;;;;;8.37;7.13;;;15.70;99.90;;;;;;5030416;28;20587;-68
2021/08/31 01:38:46;;;;;;;9.13;7.67;;;15.70;99.90;;;;;;5030975;28;20214;-67
2021/08/31 01:41:15;;;;;;;8.30;7.50;;;15.60;99.90;;;;;;5031102;28;20242;-68
2021/08/31 01:43:41;;;;;;;8.33;6.97;;;15.60;99.90;;;;;;5030796;28;20559;-68
2021/08/31 01:46:09;;;;;;;7.70;6.90;;;15.60;99.90;;;;;;5030911;28;20221;-68
2021/08/31 01:48:36;;;;;;;7.60;6.80;;;15.60;99.90;;;;;;5037246;28;20210;-68
2021/08/31 01:51:03;;;;;;;8.13;7.07;;;15.60;99.90;;;;;;5037108;28;20210;-69
2021/08/31 01:53:30;;;;;;;9.60;7.53;;;15.50;99.90;;;;;;5036544;28;20554;-67
2021/08/31 01:55:57;;;;;;;9.70;8.47;;;15.50;99.90;;;;;;5037056;28;20219;-68
2021/08/31 01:58:25;;;;;;;9.47;7.33;;;15.50;99.90;;;;;;5037919;28;20210;-68
2021/08/31 02:00:52;;;;;;;9.83;8.30;;;15.50;99.90;;;;;;5033100;28;20227;-68
2021/08/31 02:03:19;;;;;;;12.20;9.40;;;15.50;99.90;;;;;;5030777;28;20202;-66
2021/08/31 02:05:46;;;;;;;13.07;10.43;;;15.30;99.90;;;;;;5022017;28;20215;-68
2021/08/31 02:08:13;;;;;;;12.17;9.53;;;15.40;99.90;;;;;;5019997;28;20306;-68
2021/08/31 02:10:41;;;;;;;13.70;10.60;;;15.40;99.90;;;;;;5031716;28;20207;-68
2021/08/31 02:13:08;;;;;;;14.37;10.13;;;15.40;99.90;;;;;;5033410;28;20222;-69
2021/08/31 02:15:36;;;;;;;12.73;9.73;;;15.30;99.90;;;;;;5035378;28;20216;-67
2021/08/31 02:18:03;;;;;;;15.07;9.73;;;15.20;99.90;;;;;;5038432;28;20194;-69
2021/08/31 02:20:30;;;;;;;16.50;10.90;;;15.30;99.90;;;;;;5037652;28;20202;-67
2021/08/31 02:22:57;;;;;;;15.77;11.23;;;15.20;99.90;;;;;;5037414;28;20218;-67
2021/08/31 02:25:24;;;;;;;17.23;11.23;;;15.20;99.90;;;;;;5037156;28;20309;-67
2021/08/31 02:27:51;;;;;;;16.47;11.07;;;15.20;99.90;;;;;;5032290;28;20229;-68
2021/08/31 02:30:17;;;;;;;16.67;11.23;;;15.30;99.90;;;;;;5034181;28;20702;-67
2021/08/31 02:32:47;;;;;;;14.43;10.57;;;15.20;99.90;;;;;;5034097;28;20221;-67
2021/08/31 02:35:13;;;;;;;15.13;11.57;;;15.30;99.90;;;;;;5036627;28;20206;-67
2021/08/31 02:37:40;;;;;;;14.93;11.10;;;15.20;99.90;;;;;;5032694;28;20704;-67
2021/08/31 02:40:08;;;;;;;15.70;10.90;;;15.30;99.90;;;;;;5037053;28;20658;-67
2021/08/31 02:42:35;;;;;;;13.90;11.00;;;15.20;99.90;;;;;;5037734;28;20229;-68
2021/08/31 02:45:01;;;;;;;14.83;10.97;;;15.30;99.90;;;;;;5036265;28;20214;-66
2021/08/31 02:47:28;;;;;;;14.97;10.87;;;15.30;99.90;;;;;;5026335;28;20235;-67
2021/08/31 02:49:56;;;;;;;12.90;10.43;;;15.30;99.90;;;;;;5035097;28;20211;-68
2021/08/31 02:52:23;;;;;;;15.03;10.50;;;15.30;99.90;;;;;;5031217;28;20217;-68
2021/08/31 02:54:50;;;;;;;14.60;10.97;;;15.30;99.90;;;;;;5024381;28;20224;-68
2021/08/31 02:57:17;;;;;;;12.67;10.20;;;15.30;99.90;;;;;;5023636;28;20203;-68
2021/08/31 02:59:44;;;;;;;11.97;10.00;;;15.30;99.90;;;;;;5032021;28;20215;-68
2021/08/31 03:02:10;;;;;;;12.77;10.00;;;15.30;99.90;;;;;;5026612;28;20210;-68
2021/08/31 03:04:39;;;;;;;11.60;9.70;;;15.30;99.90;;;;;;5023038;28;20216;-68
2021/08/31 03:07:09;;;;;;;13.80;10.83;;;15.40;99.90;;;;;;5031973;28;20227;-68
2021/08/31 03:09:37;;;;;;;13.47;10.33;;;15.40;99.90;;;;;;5021968;28;20206;-67
2021/08/31 03:12:04;;;;;;;15.47;10.30;;;15.30;99.90;;;;;;5032382;28;20561;-67
2021/08/31 03:14:31;;;;;;;11.67;9.97;;;15.40;99.90;;;;;;5021966;28;20213;-67
2021/08/31 03:16:59;;;;;;;13.23;10.30;;;15.40;99.90;;;;;;5025742;28;20214;-67
2021/08/31 03:19:26;;;;;;;11.67;9.03;;;15.40;99.90;;;;;;5019508;28;20211;-68
2021/08/31 03:21:54;;;;;;;12.80;10.03;;;15.40;99.90;;;;;;5024084;28;20544;-68
2021/08/31 03:24:22;;;;;;;11.97;9.97;;;15.40;99.90;;;;;;5029789;28;20225;-67
2021/08/31 03:26:50;;;;;;;11.20;9.20;;;15.50;99.90;;;;;;5033489;28;20206;-67
2021/08/31 03:29:17;;;;;;;11.67;8.83;;;15.40;99.90;;;;;;5019138;28;20217;-67
2021/08/31 03:31:43;;;;;;;10.17;8.50;;;15.40;99.90;;;;;;5014586;28;20649;-67
2021/08/31 03:34:10;;;;;;;9.90;8.07;;;15.40;99.90;;;;;;5024891;28;20206;-67
2021/08/31 03:36:37;;;;;;;11.97;8.67;;;15.30;99.90;;;;;;5031357;28;20226;-68
2021/08/31 03:39:04;;;;;;;9.70;8.57;;;15.30;99.90;;;;;;5016699;28;20214;-67
2021/08/31 03:41:33;;;;;;;11.20;8.90;;;15.20;99.90;;;;;;5017562;28;20247;-68
2021/08/31 03:44:00;;;;;;;11.23;9.13;;;15.20;99.90;;;;;;5024463;28;20206;-67
2021/08/31 03:46:27;;;;;;;9.70;8.43;;;15.20;99.90;;;;;;5031712;28;20210;-67
2021/08/31 03:48:53;;;;;;;9.67;8.20;;;15.10;99.90;;;;;;5024535;28;20595;-67
2021/08/31 03:51:20;;;;;;;11.17;9.20;;;15.10;99.90;;;;;;5029046;28;20206;-69
2021/08/31 03:53:47;;;;;;;9.83;8.37;;;15.00;99.90;;;;;;5023520;28;20215;-68
2021/08/31 03:56:14;;;;;;;10.83;8.93;;;15.00;99.90;;;;;;5023809;28;20227;-67
2021/08/31 03:58:42;;;;;;;13.57;9.73;;;15.00;99.90;;;;;;5028977;28;20222;-67
2021/08/31 04:01:09;;;;;;;10.37;8.73;;;15.00;99.90;;;;;;5016599;28;20202;-67
2021/08/31 04:03:35;;;;;;;12.80;9.00;;;15.00;99.90;;;;;;5024583;28;20678;-68
2021/08/31 04:06:02;;;;;;;12.07;10.00;;;14.90;99.90;;;;;;5019398;28;20207;-67
2021/08/31 04:08:29;;;;;;;11.90;9.57;;;15.00;99.90;;;;;;5025655;28;20313;-67
2021/08/31 04:10:56;;;;;;;12.77;9.87;;;15.00;99.90;;;;;;5028235;28;20675;-67
2021/08/31 04:13:23;;;;;;;13.80;10.37;;;15.00;99.90;;;;;;5032303;28;20686;-67
2021/08/31 04:15:51;;;;;;;14.00;11.03;;;15.00;99.90;;;;;;5035832;28;20203;-68
2021/08/31 04:18:17;;;;;;;13.13;10.70;;;15.00;99.90;;;;;;5029427;28;20214;-68
2021/08/31 04:20:44;;;;;;;13.17;10.07;;;15.00;99.90;;;;;;5028807;28;20574;-68
2021/08/31 04:23:11;;;;;;;12.83;10.67;;;15.10;99.90;;;;;;5028067;28;20211;-67
2021/08/31 04:25:38;;;;;;;16.80;11.33;;;15.10;99.90;;;;;;5027423;28;20207;-67
2021/08/31 04:28:05;;;;;;;11.97;10.10;;;15.20;99.90;;;;;;5026415;28;20223;-67
2021/08/31 04:30:32;;;;;;;14.87;10.53;;;15.20;99.90;;;;;;5015163;28;20573;-68
2021/08/31 04:33:00;;;;;;;12.63;10.47;;;15.20;99.90;;;;;;5015281;28;20214;-68
2021/08/31 04:35:27;;;;;;;14.97;11.73;;;15.20;99.90;;;;;;5029112;28;20198;-68
2021/08/31 04:37:54;;;;;;;15.13;11.60;;;15.30;99.90;;;;;;5017009;28;20206;-68
2021/08/31 04:40:21;;;;;;;14.83;11.93;;;15.30;99.90;;;;;;5016321;28;20334;-68
2021/08/31 04:42:48;;;;;;;15.03;11.17;;;15.30;99.90;;;;;;5028524;28;20214;-67
2021/08/31 04:45:15;;;;;;;14.33;11.73;;;15.40;99.90;;;;;;5029831;28;20207;-67
2021/08/31 04:47:42;;;;;;;16.50;10.97;;;15.40;99.90;;;;;;5031258;28;20222;-68
2021/08/31 04:50:11;;;;;;;14.20;10.57;;;15.40;99.90;;;;;;5028828;28;20652;-67
2021/08/31 04:52:37;;;;;;;14.43;10.37;;;15.40;99.90;;;;;;5023442;28;20570;-68
2021/08/31 04:55:05;;;;;;;12.30;10.10;;;15.40;99.90;;;;;;5030489;28;20202;-68
2021/08/31 04:57:32;;;;;;;11.20;9.57;;;15.40;99.90;;;;;;5019582;28;20631;-68
2021/08/31 04:59:58;;;;;;;10.97;8.53;;;15.30;99.90;;;;;;5029143;28;20214;-68
2021/08/31 05:02:25;;;;;;;17.50;9.43;;;15.30;99.90;;;;;;5021151;28;20199;-68
2021/08/31 05:04:52;;;;;;;13.47;8.97;;;15.20;99.90;;;;;;5030548;28;20207;-68
2021/08/31 05:07:20;;;;;;;12.60;9.10;;;15.20;99.90;;;;;;5019564;28;20253;-68
2021/08/31 05:09:47;;;;;;;9.93;8.43;;;15.10;99.90;;;;;;5030887;28;20210;-67
2021/08/31 05:12:14;;;;;;;15.53;9.20;;;15.20;99.90;;;;;;5030154;28;20246;-69
2021/08/31 05:14:40;;;;;;;10.93;9.17;;;15.10;99.90;;;;;;5028261;28;20612;-67
2021/08/31 05:17:07;;;;;;;11.57;9.50;;;15.20;99.90;;;;;;5020940;28;21036;-67
2021/08/31 05:19:34;;;;;;;11.07;9.00;;;15.20;99.90;;;;;;5025824;28;20206;-67
2021/08/31 05:22:01;;;;;;;11.23;9.40;;;15.30;99.90;;;;;;5030404;28;20215;-68
2021/08/31 05:24:30;;;;;;;10.40;8.77;;;15.30;99.90;;;;;;5022098;28;20234;-67
2021/08/31 05:26:57;;;;;;;12.27;9.00;;;15.40;99.90;;;;;;5029084;28;20238;-67
2021/08/31 05:29:24;;;;;;;9.97;7.73;;;15.50;99.90;;;;;;5030459;28;20222;-68
2021/08/31 05:31:51;;;;;;;9.07;6.93;;;15.50;99.90;;;;;;5030454;28;20218;-68
2021/08/31 05:34:17;;;;;;;8.87;7.97;;;15.50;99.90;;;;;;5030302;28;20222;-67
2021/08/31 05:36:45;;;;;;;8.50;6.90;;;15.60;99.90;;;;;;5030519;28;20230;-68
2021/08/31 05:39:12;;;;;;;9.17;6.97;;;15.50;99.90;;;;;;5030828;28;20202;-67
2021/08/31 05:41:40;;;;;;;7.93;7.10;;;15.50;99.90;;;;;;5028227;28;20285;-67
2021/08/31 05:44:07;;;;;;;8.70;7.00;;;15.50;99.90;;;;;;5021322;28;20210;-68
2021/08/31 05:46:34;;;;;;;9.57;7.40;;;15.40;99.90;;;;;;5029666;28;20213;-68
2021/08/31 05:49:01;;;;;;;7.63;6.30;;;15.60;99.90;;;;;;5030576;28;20226;-67
2021/08/31 05:51:28;;;;;;;9.23;6.77;;;15.60;99.90;;;;;;5027487;28;20222;-66
2021/08/31 05:53:55;;;;;;;7.83;6.40;;;15.60;99.90;;;;;;5016283;28;20238;-68
2021/08/31 05:56:22;;;;;;;7.30;6.27;;;15.70;99.90;;;;;;5017865;28;20211;-68
2021/08/31 05:58:50;;;;;;;9.70;7.47;;;15.70;99.90;;;;;;5025160;28;20202;-67
2021/08/31 06:01:17;;;;;;;7.77;6.60;;;15.70;99.90;;;;;;5026752;28;20647;-68
2021/08/31 06:03:43;;;;;;;8.77;7.73;;;15.70;99.90;;;;;;5030376;28;20452;-68
2021/08/31 06:06:10;;;;;;;8.93;7.60;;;15.70;99.90;;;;;;5022334;28;20215;-68
2021/08/31 06:08:37;;;;;;;6.97;6.27;;;15.80;99.90;;;;;;5023369;28;20257;-68
2021/08/31 06:11:04;;;;;;;8.77;6.77;;;15.80;99.90;;;;;;5027356;28;20659;-67
2021/08/31 06:13:31;;;;;;;9.73;6.90;;;15.90;99.90;;;;;;5020079;28;20226;-67
2021/08/31 06:15:59;;;;;;;7.30;6.60;;;16.00;99.90;;;;;;5020700;28;20302;-68
2021/08/31 06:18:26;;;;;;;7.30;6.60;;;16.10;99.90;;;;;;5025579;28;20209;-68
2021/08/31 06:20:52;;;;;;;7.63;6.63;;;16.10;99.90;;;;;;5031601;28;20207;-68
2021/08/31 06:23:19;;;;;;;10.37;6.83;;;16.20;99.90;;;;;;5032058;28;20659;-67
2021/08/31 06:25:46;;;;;;;7.57;6.87;;;16.20;99.90;;;;;;5023699;28;20234;-68
2021/08/31 06:28:13;;;;;;;8.13;7.20;;;16.20;99.90;;;;;;5022665;28;20230;-69
2021/08/31 06:30:40;;;;;;;9.73;7.50;;;16.30;99.90;;;;;;5031339;28;20622;-70
2021/08/31 06:33:08;;;;;;;7.80;7.00;;;16.30;99.90;;;;;;5031012;28;20695;-68
2021/08/31 06:35:35;;;;;;;8.23;7.23;;;16.30;99.90;;;;;;5035985;28;20202;-69
2021/08/31 06:38:02;;;;;;;8.13;7.33;;;16.50;99.90;;;;;;5035770;28;20667;-69
2021/08/31 06:40:29;;;;;;;9.83;7.23;;;16.40;99.90;;;;;;5034826;28;20253;-69
2021/08/31 06:42:55;;;;;;;7.77;6.97;;;16.60;99.90;;;;;;5026552;28;20211;-69
2021/08/31 06:45:22;;;;;;;7.90;7.10;;;16.60;99.90;;;;;;5025614;28;20214;-69
2021/08/31 06:47:49;;;;;;;9.80;7.53;;;16.70;99.90;;;;;;5033740;28;20225;-68
2021/08/31 06:50:17;;;;;;;8.17;7.37;;;16.70;99.90;;;;;;5030736;28;20211;-67
2021/08/31 06:52:46;;;;;;;10.43;9.30;;;16.70;99.90;;;;;;5033105;28;20664;-67
2021/08/31 06:55:13;;;;;;;13.63;8.87;;;16.70;99.90;;;;;;5022232;28;20630;-68
2021/08/31 06:57:40;;;;;;;9.10;8.13;;;16.70;99.90;;;;;;5022077;28;20213;-67
2021/08/31 07:00:08;;;;;;;8.83;7.90;;;16.80;99.90;;;;;;5032248;28;20274;-68
2021/08/31 07:02:36;;;;;;;9.30;8.30;;;16.80;99.90;;;;;;5030074;28;20207;-66
2021/08/31 07:05:03;;;;;;;8.67;7.87;;;17.00;99.90;;;;;;5033017;28;20217;-67
2021/08/31 07:07:31;;;;;;;8.83;7.93;;;17.10;99.90;;;;;;5023120;28;20203;-66
2021/08/31 07:09:58;;;;;;;8.57;7.63;;;17.20;99.90;;;;;;5026609;28;20236;-68
2021/08/31 07:12:25;;;;;;;8.97;8.07;;;17.30;99.90;;;;;;5027109;28;20277;-68
2021/08/31 07:14:53;;;;;;;9.23;8.23;;;17.50;99.90;;;;;;5027947;28;20211;-70
2021/08/31 07:17:20;;;;;;;10.27;9.13;;;17.60;99.90;;;;;;5021366;28;20210;-71
2021/08/31 07:19:47;;;;;;;10.00;8.33;;;17.60;99.90;;;;;;5025950;28;20208;-70
2021/08/31 07:22:15;;;;;;;10.53;8.40;;;17.60;99.90;;;;;;5029933;28;20215;-69
2021/08/31 07:24:43;;;;;;;8.83;7.83;;;17.70;99.90;;;;;;5027885;28;20202;-69
2021/08/31 07:27:10;;;;;;;9.57;8.27;;;17.60;99.90;;;;;;5018408;28;20213;-68
2021/08/31 07:29:37;;;;;;;8.15;7.32;;;17.60;99.90;;;;;;5035457;28;20248;-69
2021/08/31 07:32:05;;;;;;;10.57;8.43;;;17.50;99.90;;;;;;5032662;28;20217;-70
2021/08/31 07:34:32;;;;;;;9.20;7.65;;;17.60;99.90;;;;;;5039321;28;20218;-70
2021/08/31 07:36:59;;;;;;;8.60;7.70;;;17.70;99.90;;;;;;5031523;28;20238;-70
2021/08/31 07:39:25;;;;;;;8.38;7.30;;;17.80;99.90;;;;;;5034456;28;20199;-69
2021/08/31 07:41:53;;;;;;;8.63;7.45;;;17.80;99.90;;;;;;5032965;28;20214;-70
2021/08/31 07:44:20;;;;;;;7.90;6.90;;;17.90;99.90;;;;;;5028711;28;20202;-68
2021/08/31 07:46:47;;;;;;;9.10;8.17;;;18.00;99.90;;;;;;5033279;28;20198;-70
2021/08/31 07:49:15;;;;;;;9.23;7.22;;;18.20;99.90;;;;;;5032839;28;20602;-70
2021/08/31 07:51:42;;;;;;;8.50;7.60;;;18.40;99.90;;;;;;5033185;28;20250;-71
2021/08/31 07:54:09;;;;;;;8.60;7.35;;;18.60;99.90;;;;;;5027380;28;20211;-70
2021/08/31 07:56:36;;;;;;;8.25;6.70;;;18.70;99.90;;;;;;5026110;28;20217;-68
2021/08/31 07:59:05;;;;;;;8.43;7.53;;;18.80;99.90;;;;;;5031009;28;20206;-70
2021/08/31 08:01:33;;;;;;;8.98;6.57;;;18.80;99.90;;;;;;5026637;28;20567;-69
2021/08/31 08:04:00;;;;;;;7.95;7.15;;;18.80;99.90;;;;;;5023592;28;20211;-69
2021/08/31 08:06:27;;;;;;;7.80;6.97;;;18.80;99.90;;;;;;5019514;28;20206;-70
2021/08/31 08:08:55;;;;;;;10.27;7.10;;;18.80;99.90;;;;;;5027016;28;20210;-70
2021/08/31 08:11:22;;;;;;;8.03;6.10;;;18.60;99.90;;;;;;5027635;28;20210;-70
2021/08/31 08:13:50;;;;;;;7.90;6.03;;;18.80;99.90;;;;;;5037012;28;20205;-69
2021/08/31 08:16:19;;;;;;;7.18;5.38;;;19.00;99.90;;;;;;5026310;28;20575;-69
2021/08/31 08:18:46;;;;;;;9.18;5.90;;;19.40;99.90;;;;;;5026546;28;20726;-70
2021/08/31 08:21:13;;;;;;;7.30;6.32;;;19.70;99.90;;;;;;5030543;28;20199;-70
2021/08/31 08:23:40;;;;;;;6.55;5.30;;;19.90;99.90;;;;;;5031136;28;20217;-70
2021/08/31 08:26:08;;;;;;;7.40;5.03;;;20.10;99.90;;;;;;5027754;28;20215;-70
2021/08/31 08:28:36;;;;;;;5.32;4.82;;;20.20;99.90;;;;;;5028858;28;20234;-69
2021/08/31 08:31:03;;;;;;;5.15;4.65;;;20.20;99.90;;;;;;5023305;28;20215;-69
2021/08/31 08:33:32;;;;;;;5.85;5.20;;;20.30;99.90;;;;;;5032521;28;20210;-69
2021/08/31 08:35:59;;;;;;;6.10;5.20;;;20.20;99.90;;;;;;5028590;28;20226;-69
2021/08/31 08:38:26;;;;;;;7.70;6.60;;;20.20;99.90;;;;;;5030631;28;20217;-69
2021/08/31 08:40:53;;;;;;;7.28;6.18;;;20.20;99.90;;;;;;5022956;28;20266;-68
2021/08/31 08:43:20;;;;;;;5.50;4.95;;;20.30;99.90;;;;;;5031080;28;20224;-69
2021/08/31 08:45:49;;;;;;;4.88;4.38;;;20.30;99.90;;;;;;5029438;28;20202;-68
2021/08/31 08:48:19;;;;;;;5.25;4.68;;;20.40;99.90;;;;;;5028262;28;20689;-70
2021/08/31 08:50:48;;;;;;;8.93;6.30;;;20.50;99.90;;;;;;5031988;28;20227;-69
2021/08/31 08:53:16;;;;;;;6.07;4.88;;;20.60;99.90;;;;;;5031023;28;20210;-69
2021/08/31 08:55:42;;;;;;;8.60;6.13;;;20.60;99.90;;;;;;5030304;28;20207;-69
2021/08/31 08:58:09;;;;;;;5.30;4.80;;;20.70;99.90;;;;;;5031872;28;20221;-68
2021/08/31 09:01:00;;;;;;;5.28;4.32;;;20.70;99.90;;;;;;5025614;28;20229;-69
2021/08/31 09:03:28;;;;;;;5.82;4.03;;;20.80;99.90;;;;;;5019782;28;20207;-67
2021/08/31 09:06:07;;;;;;;5.40;4.57;;;21.00;99.90;;;;;;5027726;28;20206;-68
2021/08/31 09:08:35;;;;;;;4.47;3.80;;;21.10;99.90;;;;;;5029954;28;20206;-68
2021/08/31 09:11:26;;;;;;;4.80;4.28;;;21.20;99.90;;;;;;5024831;28;20574;-68
2021/08/31 09:14:21;;;;;;;6.88;3.97;;;21.20;99.90;;;;;;5028543;28;20583;-68
2021/08/31 09:16:49;;;;;;;5.65;3.60;;;21.20;99.90;;;;;;5030219;28;20202;-68
2021/08/31 09:19:17;;;;;;;3.58;3.28;;;21.20;99.90;;;;;;5023679;28;20214;-70
2021/08/31 09:21:47;;;;;;;3.50;3.20;;;21.30;99.90;;;;;;5029932;28;20647;-70
2021/08/31 09:24:14;;;;;;;3.03;2.75;;;21.40;99.90;;;;;;5028041;28;20249;-67
2021/08/31 09:26:42;;;;;;;4.38;3.08;;;21.60;99.90;;;;;;5028619;28;20651;-68
2021/08/31 09:29:16;;;;;;;4.47;2.72;;;21.70;99.90;;;;;;5017581;28;20222;-69
2021/08/31 09:32:03;;;;;;;4.32;3.25;;;21.90;99.90;;;;;;5027223;28;20195;-68
2021/08/31 09:34:40;;;;;;;3.80;3.00;;;21.90;99.90;;;;;;5025361;28;20238;-69
2021/08/31 09:37:30;;;;;;;3.85;2.72;;;21.80;99.90;;;;;;5020331;28;20238;-68
2021/08/31 09:40:13;;;;;;;3.47;3.17;;;22.00;99.90;;;;;;5027021;28;20230;-68
2021/08/31 09:42:55;;;;;;;6.57;2.78;;;22.10;99.90;;;;;;5016472;28;20675;-67
2021/08/31 09:45:25;;;;;;;6.88;3.10;;;22.20;99.90;;;;;;5019056;28;20202;-67
2021/08/31 09:47:52;;;;;;;3.03;2.67;;;22.60;99.90;;;;;;5016011;28;20550;-68
2021/08/31 09:50:34;;;;;;;5.32;3.22;;;22.90;99.90;;;;;;5030705;28;20234;-68
2021/08/31 09:53:05;;;;;;;9.23;3.80;;;23.20;99.90;;;;;;5027782;28;20208;-67
2021/08/31 09:55:32;;;;;;;3.60;3.28;;;23.50;99.90;;;;;;5027819;28;20316;-67
2021/08/31 09:58:10;;;;;;;3.90;2.85;;;23.60;99.90;;;;;;5031729;28;20206;-68
2021/08/31 10:00:37;;;;;;;2.40;2.20;;;23.60;99.90;;;;;;5026375;28;20206;-67
2021/08/31 10:03:05;;;;;;;7.22;2.83;;;23.90;99.90;;;;;;5028086;28;20264;-68
2021/08/31 10:05:33;;;;;;;2.92;2.40;;;24.40;99.90;;;;;;5030371;28;20205;-68
2021/08/31 10:08:01;;;;;;;3.15;2.85;;;24.80;99.90;;;;;;5031279;28;20492;-67
2021/08/31 10:10:30;;;;;;;2.70;2.38;;;25.10;99.90;;;;;;5034412;28;20451;-67
2021/08/31 10:12:58;;;;;;;2.35;2.13;;;25.40;99.90;;;;;;5033992;28;20215;-67
2021/08/31 10:15:25;;;;;;;3.13;2.88;;;25.60;98.50;;;;;;5035398;28;20206;-70
2021/08/31 10:17:53;;;;;;;2.67;2.28;;;25.60;97.30;;;;;;5036587;28;20230;-68
2021/08/31 10:20:23;;;;;;;2.30;2.10;;;25.50;97.30;;;;;;5036410;28;20294;-68
2021/08/31 10:22:50;;;;;;;2.65;2.45;;;25.30;96.60;;;;;;5029449;28;20198;-68
2021/08/31 10:25:22;;;;;;;3.55;2.53;;;25.10;96.50;;;;;;5036544;28;20209;-66
2021/08/31 10:27:51;;;;;;;2.80;2.60;;;24.90;96.40;;;;;;5035940;28;20206;-68
2021/08/31 10:30:35;;;;;;;4.53;2.60;;;24.70;96.40;;;;;;5035735;28;20231;-65
2021/08/31 10:33:04;;;;;;;3.10;2.80;;;24.50;96.30;;;;;;5035037;28;20241;-67
2021/08/31 10:35:53;;;;;;;2.40;2.20;;;24.30;96.80;;;;;;5039745;28;20210;-69
2021/08/31 10:38:44;;;;;;;4.80;2.53;;;24.00;97.30;;;;;;5023793;28;20463;-66
2021/08/31 10:41:42;;;;;;;2.92;2.40;;;23.80;97.60;;;;;;5030132;28;20238;-66
2021/08/31 10:44:26;;;;;;;4.13;3.53;;;23.60;97.30;;;;;;5033319;28;20206;-68
2021/08/31 10:47:06;;;;;;;4.70;3.28;;;23.50;97.60;;;;;;5015498;28;20201;-68
2021/08/31 10:49:34;;;;;;;2.42;2.22;;;23.70;98.60;;;;;;5037035;28;20623;-67
2021/08/31 10:52:09;;;;;;;2.83;2.60;;;23.80;98.10;;;;;;5033669;28;20453;-68
2021/08/31 10:54:46;;;;;;;2.45;2.25;;;23.80;97.50;;;;;;5038515;28;20228;-69
2021/08/31 10:57:42;;;;;;;2.80;2.60;;;23.60;97.10;;;;;;5030327;28;20695;-69
2021/08/31 11:01:00;;;;;;;2.45;2.25;;;23.70;98.30;;;;;;5024651;28;20554;-69
2021/08/31 11:03:35;;;;;;;4.30;2.67;;;24.30;97.80;;;;;;5026302;28;20564;-70
2021/08/31 11:06:30;;;;;;;4.32;2.60;;;24.80;96.20;;;;;;5026492;28;20660;-68
2021/08/31 11:09:09;;;;;;;2.30;2.10;;;25.00;95.40;;;;;;5016880;28;20205;-67
2021/08/31 11:11:36;;;;;;;2.40;1.88;;;25.20;94.90;;;;;;5027233;28;20199;-69
2021/08/31 11:14:03;;;;;;;2.72;2.28;;;25.20;94.20;;;;;;5025701;28;20223;-70
2021/08/31 11:16:36;;;;;;;3.83;2.25;;;25.00;94.20;;;;;;5033647;28;20206;-70
2021/08/31 11:19:04;;;;;;;4.32;2.15;;;24.90;93.90;;;;;;5027322;28;20207;-69
2021/08/31 11:21:31;;;;;;;2.67;2.03;;;24.80;93.50;;;;;;5018878;28;20204;-69
2021/08/31 11:24:07;;;;;;;2.03;1.80;;;24.50;93.90;;;;;;5024823;28;20547;-68
2021/08/31 11:26:34;;;;;;;4.32;2.45;;;24.80;95.40;;;;;;5019420;28;20207;-68
2021/08/31 11:29:08;;;;;;;4.28;2.50;;;25.20;94.40;;;;;;5022295;28;20660;-70
2021/08/31 11:31:36;;;;;;;2.13;1.85;;;25.60;93.50;;;;;;5024699;28;20761;-70
2021/08/31 11:34:10;;;;;;;2.75;1.80;;;25.60;92.20;;;;;;5019988;28;20203;-68
2021/08/31 11:36:38;;;;;;;5.25;1.70;;;25.60;92.00;;;;;;5014227;28;20230;-68
2021/08/31 11:39:07;;;;;;;2.20;2.00;;;25.60;91.60;;;;;;5019477;28;20211;-70
2021/08/31 11:41:36;;;;;;;2.22;1.75;;;25.50;91.20;;;;;;5020162;28;20337;-69
2021/08/31 11:44:09;;;;;;;2.35;1.83;;;25.50;91.70;;;;;;5021826;28;20207;-70
2021/08/31 11:46:38;;;;;;;3.72;1.98;;;25.50;91.40;;;;;;5023268;28;20727;-70
2021/08/31 11:49:08;;;;;;;2.00;1.90;;;25.50;91.20;;;;;;5019053;28;20675;-69
2021/08/31 11:51:34;;;;;;;2.83;2.13;;;25.70;91.60;;;;;;5024638;28;20523;-68
2021/08/31 11:54:06;;;;;;;3.88;2.95;;;25.90;91.10;;;;;;5018560;28;20223;-69
2021/08/31 11:56:33;;;;;;;2.15;1.95;;;26.00;90.20;;;;;;5019765;28;20210;-69
2021/08/31 11:59:00;;;;;;;2.15;1.75;;;25.80;89.80;;;;;;5025512;28;20654;-69
2021/08/31 12:01:29;;;;;;;3.38;1.52;;;25.70;89.40;;;;;;5019528;28;20206;-69
2021/08/31 12:04:13;;;;;;;2.30;2.10;;;25.80;88.70;;;;;;5016234;28;20217;-68
2021/08/31 12:06:40;;;;;;;3.13;2.20;;;25.90;88.10;;;;;;5022870;28;20207;-69
2021/08/31 12:09:07;;;;;;;2.00;1.90;;;26.00;87.10;;;;;;5018221;28;20199;-70
2021/08/31 12:11:34;;;;;;;2.75;1.73;;;25.90;87.20;;;;;;5013680;28;20227;-68
2021/08/31 12:14:01;;;;;;;1.65;1.55;;;25.90;86.40;;;;;;5021724;28;20207;-67
2021/08/31 12:16:28;;;;;;;1.92;1.80;;;25.60;86.60;;;;;;5023674;28;20202;-68
2021/08/31 12:18:55;;;;;;;2.53;1.75;;;25.40;87.10;;;;;;5022601;28;20229;-68
2021/08/31 12:21:25;;;;;;;1.58;1.48;;;25.10;87.40;;;;;;5017889;28;20302;-68
2021/08/31 12:23:53;;;;;;;2.60;1.88;;;24.80;88.80;;;;;;5015610;28;20215;-69
2021/08/31 12:26:37;;;;;;;2.83;1.70;;;24.80;89.80;;;;;;5013373;28;20210;-69
2021/08/31 12:29:07;;;;;;;2.45;2.25;;;24.80;89.70;;;;;;5020755;28;20214;-68
2021/08/31 12:31:35;;;;;;;3.05;1.80;;;25.00;89.90;;;;;;5016764;28;20679;-69
2021/08/31 12:34:02;;;;;;;6.18;1.80;;;25.10;90.30;;;;;;5023491;28;20724;-68
2021/08/31 12:36:35;;;;;;;2.55;2.13;;;25.50;89.30;;;;;;5032598;28;20313;-67
2021/08/31 12:39:07;;;;;;;1.75;1.65;;;25.60;88.40;;;;;;5013008;28;20211;-68
2021/08/31 12:41:42;;;;;;;2.10;1.90;;;25.60;87.90;;;;;;5030531;28;20325;-68
2021/08/31 12:44:17;;;;;;;4.18;1.70;;;25.30;87.40;;;;;;5033003;28;20301;-69
2021/08/31 12:46:45;;;;;;;2.00;1.80;;;25.10;88.60;;;;;;5032501;28;20197;-69
2021/08/31 12:49:13;;;;;;;3.33;2.47;;;24.90;88.80;;;;;;5032359;28;20219;-69